createdAt,value
2018-02-07T00:00:13.864Z,-0.57
2018-02-07T00:01:13.903Z,-0.54
2018-02-07T00:02:13.917Z,-0.60
2018-02-07T00:03:13.945Z,-0.46
2018-02-07T00:04:13.975Z,-0.42
2018-02-07T00:05:13.996Z,-0.47
2018-02-07T00:06:14.035Z,-0.43
2018-02-07T00:07:14.054Z,-0.51
2018-02-07T00:08:14.085Z,-0.51
2018-02-07T00:09:14.110Z,-0.55
2018-02-07T00:10:14.138Z,-0.47
2018-02-07T00:11:14.235Z,-0.60
2018-02-07T00:12:14.196Z,-0.47
2018-02-07T00:13:14.223Z,-0.52
2018-02-07T00:14:14.251Z,-0.62
2018-02-07T00:15:14.276Z,-0.61
2018-02-07T00:16:14.307Z,-0.57
2018-02-07T00:17:14.332Z,-0.62
2018-02-07T00:18:14.359Z,-0.58
2018-02-07T00:19:14.387Z,-0.61
2018-02-07T00:20:14.471Z,-0.52
2018-02-07T00:21:14.444Z,-0.57
2018-02-07T00:22:14.468Z,-0.61
2018-02-07T00:23:14.500Z,-0.55
2018-02-07T00:24:14.527Z,-0.52
2018-02-07T00:25:14.552Z,-0.54
2018-02-07T00:26:14.581Z,-0.62
2018-02-07T00:27:14.610Z,-0.57
2018-02-07T00:28:14.638Z,-0.60
2018-02-07T00:29:14.669Z,-0.69
2018-02-07T00:30:14.691Z,-0.65
2018-02-07T00:31:14.721Z,-0.64
2018-02-07T00:32:14.749Z,-0.62
2018-02-07T00:33:14.778Z,-0.65
2018-02-07T00:34:14.804Z,-0.70
2018-02-07T00:35:14.834Z,-0.64
2018-02-07T00:36:14.860Z,-0.69
2018-02-07T00:37:14.890Z,-0.73
2018-02-07T00:38:14.919Z,-0.67
2018-02-07T00:39:14.942Z,-0.73
2018-02-07T00:40:14.972Z,-0.85
2018-02-07T00:41:14.999Z,-0.82
2018-02-07T00:42:15.024Z,-0.82
2018-02-07T00:43:15.068Z,-0.94
2018-02-07T00:44:15.080Z,-0.97
2018-02-07T00:45:15.109Z,-0.95
2018-02-07T00:46:15.140Z,-1.05
2018-02-07T00:47:15.272Z,-0.95
2018-02-07T00:48:15.189Z,-1.16
2018-02-07T00:49:15.220Z,-1.10
2018-02-07T00:50:15.255Z,-1.05
2018-02-07T00:51:15.276Z,-1.13
2018-02-07T00:52:15.303Z,-1.17
2018-02-07T00:53:15.339Z,-1.19
2018-02-07T00:54:15.360Z,-1.17
2018-02-07T00:55:15.401Z,-1.13
2018-02-07T00:56:15.413Z,-1.20
2018-02-07T00:57:15.502Z,-1.12
2018-02-07T00:58:15.471Z,-1.12
2018-02-07T00:59:15.496Z,-1.15
2018-02-07T01:00:15.523Z,-1.12
2018-02-07T01:01:15.550Z,-1.22
2018-02-07T01:02:15.581Z,-1.16
2018-02-07T01:03:15.608Z,-1.20
2018-02-07T01:04:15.705Z,-1.12
2018-02-07T01:05:15.663Z,-1.10
2018-02-07T01:06:15.692Z,-1.10
2018-02-07T01:07:15.717Z,-1.05
2018-02-07T01:08:15.747Z,-1.16
2018-02-07T01:09:15.773Z,-1.17
2018-02-07T01:10:15.804Z,-1.23
2018-02-07T01:11:15.904Z,-1.15
2018-02-07T01:12:15.856Z,-1.19
2018-02-07T01:13:15.883Z,-1.20
2018-02-07T01:14:15.914Z,-1.19
2018-02-07T01:15:15.939Z,-1.19
2018-02-07T01:16:15.967Z,-1.12
2018-02-07T01:17:15.994Z,-1.10
2018-02-07T01:18:16.019Z,-1.20
2018-02-07T01:19:16.057Z,-1.16
2018-02-07T01:20:16.077Z,-1.17
2018-02-07T01:21:16.104Z,-1.23
2018-02-07T01:22:16.130Z,-1.37
2018-02-07T01:23:16.164Z,-1.34
2018-02-07T01:24:16.195Z,-1.20
2018-02-07T01:25:16.214Z,-1.30
2018-02-07T01:26:16.244Z,-1.33
2018-02-07T01:27:16.271Z,-1.33
2018-02-07T01:28:16.296Z,-1.25
2018-02-07T01:29:16.325Z,-1.38
2018-02-07T01:30:16.357Z,-1.43
2018-02-07T01:31:16.381Z,-1.43
2018-02-07T01:32:16.406Z,-1.45
2018-02-07T01:33:16.437Z,-1.54
2018-02-07T01:34:16.466Z,-1.46
2018-02-07T01:35:16.492Z,-1.52
2018-02-07T01:36:16.515Z,-1.48
2018-02-07T01:37:16.548Z,-1.40
2018-02-07T01:38:16.586Z,-1.48
2018-02-07T01:39:16.599Z,-1.55
2018-02-07T01:40:16.696Z,-1.51
2018-02-07T01:41:16.657Z,-1.54
2018-02-07T01:42:16.683Z,-1.62
2018-02-07T01:43:16.710Z,-1.59
2018-02-07T01:45:16.769Z,-1.59
2018-02-07T01:46:16.804Z,-1.62
2018-02-07T01:47:16.825Z,-1.58
2018-02-07T01:48:16.850Z,-1.56
2018-02-07T01:49:16.884Z,-1.54
2018-02-07T01:50:16.908Z,-1.56
2018-02-07T01:51:16.931Z,-1.51
2018-02-07T01:52:16.959Z,-1.56
2018-02-07T01:53:16.984Z,-1.41
2018-02-07T01:54:17.011Z,-1.46
2018-02-07T01:55:17.048Z,-1.37
2018-02-07T01:56:17.070Z,-1.31
2018-02-07T01:57:17.119Z,-1.33
2018-02-07T01:58:17.122Z,-1.30
2018-02-07T01:59:17.150Z,-1.33
2018-02-07T02:00:17.180Z,-1.34
2018-02-07T02:01:17.205Z,-1.25
2018-02-07T02:02:17.232Z,-1.25
2018-02-07T02:03:17.260Z,-1.27
2018-02-07T02:04:17.404Z,-1.19
2018-02-07T02:05:17.316Z,-1.19
2018-02-07T02:06:17.342Z,-1.10
2018-02-07T02:07:17.369Z,-1.05
2018-02-07T02:08:17.395Z,-1.17
2018-02-07T02:09:17.482Z,-1.07
2018-02-07T02:10:17.449Z,-1.04
2018-02-07T02:11:17.480Z,-0.99
2018-02-07T02:12:17.505Z,-1.07
2018-02-07T02:13:17.533Z,-1.09
2018-02-07T02:14:17.561Z,-1.16
2018-02-07T02:15:17.591Z,-1.05
2018-02-07T02:16:17.616Z,-1.05
2018-02-07T02:17:17.643Z,-1.07
2018-02-07T02:18:17.670Z,-0.99
2018-02-07T02:19:17.696Z,-1.07
2018-02-07T02:20:17.726Z,-1.16
2018-02-07T02:21:17.752Z,-1.09
2018-02-07T02:22:17.782Z,-1.13
2018-02-07T02:23:17.811Z,-1.12
2018-02-07T02:24:17.836Z,-1.10
2018-02-07T02:25:17.861Z,-1.17
2018-02-07T02:26:17.892Z,-1.15
2018-02-07T02:27:17.919Z,-1.19
2018-02-07T02:28:17.945Z,-1.13
2018-02-07T02:29:17.972Z,-1.16
2018-02-07T02:30:18.009Z,-1.22
2018-02-07T02:31:18.034Z,-1.25
2018-02-07T02:32:18.054Z,-1.25
2018-02-07T02:33:18.184Z,-1.34
2018-02-07T02:34:18.112Z,-1.38
2018-02-07T02:35:18.139Z,-1.40
2018-02-07T02:36:18.164Z,-1.34
2018-02-07T02:37:18.193Z,-1.41
2018-02-07T02:38:18.222Z,-1.41
2018-02-07T02:39:18.248Z,-1.27
2018-02-07T02:40:18.276Z,-1.31
2018-02-07T02:41:18.308Z,-1.30
2018-02-07T02:42:18.331Z,-1.33
2018-02-07T02:43:18.412Z,-1.31
2018-02-07T02:44:18.385Z,-1.22
2018-02-07T02:45:18.416Z,-1.27
2018-02-07T02:46:18.498Z,-1.28
2018-02-07T02:47:18.468Z,-1.20
2018-02-07T02:48:18.497Z,-1.22
2018-02-07T02:49:18.519Z,-1.22
2018-02-07T02:50:18.602Z,-1.13
2018-02-07T02:51:18.575Z,-1.07
2018-02-07T02:52:18.601Z,-0.99
2018-02-07T02:53:18.630Z,-1.02
2018-02-07T02:54:18.658Z,-1.10
2018-02-07T02:55:18.686Z,-0.99
2018-02-07T02:56:18.710Z,-1.05
2018-02-07T02:57:18.739Z,-1.04
2018-02-07T02:58:18.766Z,-0.98
2018-02-07T02:59:18.796Z,-0.92
2018-02-07T03:00:18.822Z,-0.94
2018-02-07T03:01:18.849Z,-0.86
2018-02-07T03:02:18.879Z,-0.94
2018-02-07T03:03:18.907Z,-1.02
2018-02-07T03:04:18.931Z,-1.04
2018-02-07T03:05:18.959Z,-0.98
2018-02-07T03:06:18.986Z,-0.99
2018-02-07T03:07:19.037Z,-0.97
2018-02-07T03:08:19.042Z,-0.91
2018-02-07T03:09:19.070Z,-0.85
2018-02-07T03:10:19.097Z,-0.94
2018-02-07T03:11:19.127Z,-0.83
2018-02-07T03:12:19.150Z,-0.83
2018-02-07T03:13:19.180Z,-0.82
2018-02-07T03:14:19.208Z,-0.79
2018-02-07T03:15:19.234Z,-0.78
2018-02-07T03:16:19.261Z,-0.79
2018-02-07T03:17:19.288Z,-0.82
2018-02-07T03:18:19.337Z,-0.79
2018-02-07T03:19:19.349Z,-0.72
2018-02-07T03:20:19.372Z,-0.75
2018-02-07T03:21:19.398Z,-0.62
2018-02-07T03:22:19.438Z,-0.69
2018-02-07T03:23:19.454Z,-0.69
2018-02-07T03:24:19.484Z,-0.69
2018-02-07T03:25:19.510Z,-0.65
2018-02-07T03:26:19.630Z,-0.75
2018-02-07T03:27:19.579Z,-0.73
2018-02-07T03:28:19.591Z,-0.67
2018-02-07T03:29:19.619Z,-0.69
2018-02-07T03:30:19.664Z,-0.73
2018-02-07T03:31:19.676Z,-0.70
2018-02-07T03:32:19.700Z,-0.64
2018-02-07T03:33:19.731Z,-0.62
2018-02-07T03:34:19.757Z,-0.73
2018-02-07T03:35:19.786Z,-0.72
2018-02-07T03:36:19.819Z,-0.73
2018-02-07T03:37:19.840Z,-0.69
2018-02-07T03:38:19.874Z,-0.69
2018-02-07T03:39:19.893Z,-0.69
2018-02-07T03:40:19.922Z,-0.76
2018-02-07T03:41:19.966Z,-0.79
2018-02-07T03:42:19.993Z,-0.76
2018-02-07T03:43:20.047Z,-0.72
2018-02-07T03:44:20.044Z,-0.76
2018-02-07T03:45:20.062Z,-0.80
2018-02-07T03:46:20.085Z,-0.80
2018-02-07T03:47:20.115Z,-0.73
2018-02-07T03:48:20.141Z,-0.80
2018-02-07T03:49:20.173Z,-0.78
2018-02-07T03:50:20.197Z,-0.79
2018-02-07T03:51:20.224Z,-0.78
2018-02-07T03:52:20.251Z,-0.92
2018-02-07T03:53:20.345Z,-0.79
2018-02-07T03:54:20.309Z,-0.95
2018-02-07T03:55:20.437Z,-0.94
2018-02-07T03:56:20.362Z,-0.94
2018-02-07T03:57:20.393Z,-1.01
2018-02-07T03:58:20.433Z,-0.95
2018-02-07T03:59:20.446Z,-0.98
2018-02-07T04:00:20.474Z,-0.92
2018-02-07T04:01:20.504Z,-0.92
2018-02-07T04:02:20.529Z,-0.92
2018-02-07T04:03:20.557Z,-0.95
2018-02-07T04:04:20.584Z,-0.95
2018-02-07T04:05:20.645Z,-1.02
2018-02-07T04:06:20.645Z,-0.98
2018-02-07T04:07:20.667Z,-0.99
2018-02-07T04:08:20.696Z,-0.98
2018-02-07T04:09:20.725Z,-1.04
2018-02-07T04:10:20.751Z,-1.07
2018-02-07T04:11:20.778Z,-1.05
2018-02-07T04:12:20.832Z,-1.23
2018-02-07T04:13:20.836Z,-1.22
2018-02-07T04:14:20.869Z,-1.12
2018-02-07T04:15:20.888Z,-1.25
2018-02-07T04:16:20.916Z,-1.16
2018-02-07T04:17:20.946Z,-1.12
2018-02-07T04:18:20.971Z,-1.10
2018-02-07T04:19:20.998Z,-1.04
2018-02-07T04:20:21.025Z,-1.09
2018-02-07T04:21:21.056Z,-1.02
2018-02-07T04:22:21.084Z,-0.99
2018-02-07T04:23:21.109Z,-0.91
2018-02-07T04:24:21.136Z,-0.92
2018-02-07T04:25:21.162Z,-0.89
2018-02-07T04:26:21.190Z,-0.86
2018-02-07T04:27:21.216Z,-0.85
2018-02-07T04:28:21.259Z,-0.76
2018-02-07T04:29:21.346Z,-0.73
2018-02-07T04:30:21.301Z,-0.70
2018-02-07T04:31:21.327Z,-0.73
2018-02-07T04:32:21.403Z,-0.73
2018-02-07T04:33:21.382Z,-0.75
2018-02-07T04:34:21.409Z,-0.72
2018-02-07T04:35:21.438Z,-0.69
2018-02-07T04:36:21.535Z,-0.65
2018-02-07T04:37:21.493Z,-0.72
2018-02-07T04:38:21.520Z,-0.67
2018-02-07T04:39:21.548Z,-0.76
2018-02-07T04:40:21.574Z,-0.76
2018-02-07T04:41:21.619Z,-0.64
2018-02-07T04:42:21.630Z,-0.76
2018-02-07T04:43:21.661Z,-0.78
2018-02-07T04:44:21.685Z,-0.79
2018-02-07T04:45:21.712Z,-0.79
2018-02-07T04:46:21.809Z,-0.80
2018-02-07T04:47:21.769Z,-0.78
2018-02-07T04:48:21.799Z,-0.85
2018-02-07T04:49:21.821Z,-0.76
2018-02-07T04:50:21.850Z,-0.78
2018-02-07T04:51:21.880Z,-0.72
2018-02-07T04:52:21.906Z,-0.73
2018-02-07T04:53:21.940Z,-0.69
2018-02-07T04:54:21.975Z,-0.69
2018-02-07T04:55:22.004Z,-0.70
2018-02-07T04:56:22.016Z,-0.58
2018-02-07T04:57:22.053Z,-0.52
2018-02-07T04:58:22.075Z,-0.55
2018-02-07T04:59:22.102Z,-0.58
2018-02-07T05:00:22.123Z,-0.54
2018-02-07T05:01:22.174Z,-0.55
2018-02-07T05:02:22.182Z,-0.51
2018-02-07T05:03:22.209Z,-0.51
2018-02-07T05:04:22.234Z,-0.54
2018-02-07T05:05:22.327Z,-0.55
2018-02-07T05:06:22.291Z,-0.39
2018-02-07T05:07:22.318Z,-0.52
2018-02-07T05:08:22.347Z,-0.57
2018-02-07T05:09:22.373Z,-0.40
2018-02-07T05:10:22.411Z,-0.46
2018-02-07T05:11:22.428Z,-0.43
2018-02-07T05:12:22.455Z,-0.55
2018-02-07T05:13:22.483Z,-0.54
2018-02-07T05:14:22.512Z,-0.58
2018-02-07T05:15:22.543Z,-0.58
2018-02-07T05:16:22.567Z,-0.55
2018-02-07T05:17:22.594Z,-0.44
2018-02-07T05:18:22.622Z,-0.43
2018-02-07T05:19:22.654Z,-0.36
2018-02-07T05:20:22.699Z,-0.46
2018-02-07T05:21:22.705Z,-0.43
2018-02-07T05:22:22.786Z,-0.54
2018-02-07T05:23:22.764Z,-0.52
2018-02-07T05:24:22.790Z,-0.43
2018-02-07T05:25:22.817Z,-0.43
2018-02-07T05:26:22.845Z,-0.43
2018-02-07T05:27:22.932Z,-0.51
2018-02-07T05:28:22.907Z,-0.37
2018-02-07T05:29:22.930Z,-0.43
2018-02-07T05:30:22.956Z,-0.37
2018-02-07T05:31:22.984Z,-0.43
2018-02-07T05:32:23.011Z,-0.46
2018-02-07T05:33:23.042Z,-0.40
2018-02-07T05:34:23.072Z,-0.43
2018-02-07T05:35:23.096Z,-0.40
2018-02-07T05:36:23.126Z,-0.28
2018-02-07T05:37:23.150Z,-0.39
2018-02-07T05:38:23.177Z,-0.31
2018-02-07T05:39:23.208Z,-0.23
2018-02-07T05:40:23.231Z,-0.37
2018-02-07T05:41:23.264Z,-0.29
2018-02-07T05:42:23.289Z,-0.33
2018-02-07T05:43:23.319Z,-0.33
2018-02-07T05:44:23.670Z,-0.31
2018-02-07T05:45:23.370Z,-0.31
2018-02-07T05:46:23.399Z,-0.23
2018-02-07T05:47:23.429Z,-0.21
2018-02-07T05:49:23.487Z,-0.28
2018-02-07T05:50:23.512Z,-0.22
2018-02-07T05:51:23.540Z,-0.26
2018-02-07T05:52:23.568Z,-0.31
2018-02-07T05:53:23.600Z,-0.29
2018-02-07T05:54:23.622Z,-0.29
2018-02-07T05:55:23.652Z,-0.29
2018-02-07T05:56:23.677Z,-0.31
2018-02-07T05:57:23.716Z,-0.31
2018-02-07T05:58:23.737Z,-0.26
2018-02-07T05:59:23.763Z,-0.36
2018-02-07T06:00:23.794Z,-0.29
2018-02-07T06:01:23.871Z,-0.34
2018-02-07T06:02:23.848Z,-0.33
2018-02-07T06:03:23.874Z,-0.34
2018-02-07T06:04:23.901Z,-0.34
2018-02-07T06:05:23.946Z,-0.37
2018-02-07T06:06:23.959Z,-0.43
2018-02-07T06:07:24.003Z,-0.44
2018-02-07T06:08:24.093Z,-0.51
2018-02-07T06:09:24.042Z,-0.43
2018-02-07T06:10:24.070Z,-0.51
2018-02-07T06:11:24.111Z,-0.42
2018-02-07T06:12:24.125Z,-0.47
2018-02-07T06:13:24.156Z,-0.49
2018-02-07T06:14:24.180Z,-0.40
2018-02-07T06:15:24.218Z,-0.46
2018-02-07T06:16:24.253Z,-0.42
2018-02-07T06:17:24.263Z,-0.33
2018-02-07T06:18:24.306Z,-0.36
2018-02-07T06:19:24.379Z,-0.29
2018-02-07T06:20:24.346Z,-0.34
2018-02-07T06:21:24.376Z,-0.26
2018-02-07T06:22:24.404Z,-0.33
2018-02-07T06:23:24.432Z,-0.28
2018-02-07T06:24:24.462Z,-0.26
2018-02-07T06:25:24.620Z,-0.25
2018-02-07T06:26:24.517Z,-0.33
2018-02-07T06:27:24.560Z,-0.23
2018-02-07T06:28:24.570Z,-0.25
2018-02-07T06:29:24.601Z,-0.26
2018-02-07T06:30:24.671Z,-0.19
2018-02-07T06:31:24.655Z,-0.18
2018-02-07T06:32:24.682Z,-0.14
2018-02-07T06:33:24.712Z,-0.16
2018-02-07T06:34:24.737Z,-0.22
2018-02-07T06:35:24.767Z,-0.25
2018-02-07T06:36:24.793Z,-0.19
2018-02-07T06:37:24.885Z,-0.16
2018-02-07T06:38:24.852Z,-0.14
2018-02-07T06:39:24.878Z,-0.19
2018-02-07T06:40:24.923Z,-0.14
2018-02-07T06:41:24.932Z,-0.10
2018-02-07T06:42:24.963Z,-0.16
2018-02-07T06:43:24.994Z,-0.10
2018-02-07T06:44:25.016Z,-0.18
2018-02-07T06:45:25.053Z,-0.05
2018-02-07T06:46:25.076Z,-0.19
2018-02-07T06:47:25.102Z,-0.21
2018-02-07T06:48:25.135Z,-0.15
2018-02-07T06:49:25.157Z,-0.14
2018-02-07T06:50:25.185Z,-0.14
2018-02-07T06:51:25.216Z,-0.11
2018-02-07T06:52:25.288Z,-0.10
2018-02-07T06:53:25.270Z,-0.23
2018-02-07T06:54:25.351Z,-0.15
2018-02-07T06:55:25.326Z,-0.11
2018-02-07T06:56:25.355Z,-0.07
2018-02-07T06:57:25.381Z,-0.14
2018-02-07T06:58:25.411Z,-0.07
2018-02-07T06:59:25.437Z,-0.11
2018-02-07T07:00:25.464Z,-0.19
2018-02-07T07:01:25.495Z,-0.18
2018-02-07T07:02:25.527Z,-0.11
2018-02-07T07:03:25.556Z,-0.10
2018-02-07T07:04:25.577Z,-0.08
2018-02-07T07:05:25.606Z,-0.03
2018-02-07T07:06:25.639Z,-0.01
2018-02-07T07:07:25.722Z,-0.14
2018-02-07T07:08:25.689Z,0.03
2018-02-07T07:09:25.719Z,0.00
2018-02-07T07:10:25.747Z,0.07
2018-02-07T07:11:25.796Z,0.02
2018-02-07T07:12:25.809Z,0.02
2018-02-07T07:13:25.830Z,0.03
2018-02-07T07:14:25.861Z,0.00
2018-02-07T07:15:25.889Z,-0.03
2018-02-07T07:16:25.977Z,-0.05
2018-02-07T07:17:25.996Z,-0.05
2018-02-07T07:18:26.037Z,-0.08
2018-02-07T07:19:25.997Z,-0.10
2018-02-07T07:20:26.026Z,-0.11
2018-02-07T07:21:26.057Z,-0.05
2018-02-07T07:22:26.084Z,-0.05
2018-02-07T07:23:26.110Z,0.00
2018-02-07T07:24:26.138Z,-0.10
2018-02-07T07:25:26.169Z,-0.05
2018-02-07T07:26:26.198Z,0.02
2018-02-07T07:27:26.438Z,0.03
2018-02-07T07:28:26.255Z,0.04
2018-02-07T07:29:26.277Z,0.10
2018-02-07T07:30:26.626Z,0.10
2018-02-07T07:31:26.339Z,0.08
2018-02-07T07:32:26.361Z,0.07
2018-02-07T07:33:26.389Z,0.18
2018-02-07T07:34:26.420Z,0.33
2018-02-07T07:35:26.456Z,0.33
2018-02-07T07:36:26.474Z,0.36
2018-02-07T07:37:26.503Z,0.38
2018-02-07T07:38:26.532Z,0.47
2018-02-07T07:39:26.560Z,0.46
2018-02-07T07:40:26.648Z,0.55
2018-02-07T07:41:26.615Z,0.60
2018-02-07T07:42:26.643Z,0.55
2018-02-07T07:43:26.673Z,0.62
2018-02-07T07:44:26.715Z,0.66
2018-02-07T07:45:26.732Z,0.72
2018-02-07T07:46:26.761Z,0.69
2018-02-07T07:47:27.109Z,0.78
2018-02-07T07:48:26.812Z,0.75
2018-02-07T07:49:26.840Z,0.69
2018-02-07T07:50:26.873Z,0.70
2018-02-07T07:51:26.896Z,0.53
2018-02-07T07:52:26.944Z,0.78
2018-02-07T07:53:26.956Z,0.72
2018-02-07T07:54:26.980Z,0.68
2018-02-07T07:55:27.012Z,0.78
2018-02-07T07:56:27.036Z,0.84
2018-02-07T07:57:27.073Z,0.87
2018-02-07T07:58:27.102Z,0.91
2018-02-07T07:59:27.124Z,0.84
2018-02-07T08:00:27.153Z,0.96
2018-02-07T08:01:27.182Z,0.90
2018-02-07T08:02:27.208Z,0.84
2018-02-07T08:03:27.238Z,0.83
2018-02-07T08:04:27.318Z,0.88
2018-02-07T08:05:27.294Z,0.84
2018-02-07T08:06:27.338Z,0.79
2018-02-07T08:07:27.352Z,0.80
2018-02-07T08:08:27.378Z,0.97
2018-02-07T08:09:27.406Z,0.97
2018-02-07T08:10:27.436Z,0.91
2018-02-07T08:11:27.463Z,0.98
2018-02-07T08:12:27.494Z,0.91
2018-02-07T08:13:27.524Z,0.93
2018-02-07T08:14:27.550Z,1.04
2018-02-07T08:15:27.578Z,1.00
2018-02-07T08:16:27.606Z,1.14
2018-02-07T08:17:27.634Z,1.16
2018-02-07T08:18:27.666Z,1.11
2018-02-07T08:19:27.690Z,1.06
2018-02-07T08:20:27.719Z,0.91
2018-02-07T08:21:27.753Z,0.83
2018-02-07T08:22:27.777Z,0.86
2018-02-07T08:23:27.805Z,0.86
2018-02-07T08:24:27.880Z,0.96
2018-02-07T08:25:27.861Z,0.98
2018-02-07T08:26:27.894Z,0.90
2018-02-07T08:27:27.918Z,0.93
2018-02-07T08:28:27.946Z,0.83
2018-02-07T08:29:27.991Z,0.84
2018-02-07T08:30:28.006Z,1.02
2018-02-07T08:31:28.032Z,1.04
2018-02-07T08:32:28.059Z,1.14
2018-02-07T08:33:28.291Z,1.22
2018-02-07T08:34:28.126Z,1.30
2018-02-07T08:35:28.146Z,1.36
2018-02-07T08:36:28.175Z,1.42
2018-02-07T08:37:28.204Z,1.41
2018-02-07T08:38:28.230Z,1.34
2018-02-07T08:39:28.256Z,1.33
2018-02-07T08:40:28.302Z,1.42
2018-02-07T08:41:28.317Z,1.48
2018-02-07T08:42:28.343Z,1.48
2018-02-07T08:43:28.375Z,1.45
2018-02-07T08:44:28.403Z,1.42
2018-02-07T08:45:28.428Z,1.55
2018-02-07T08:46:28.459Z,1.48
2018-02-07T08:47:28.488Z,1.37
2018-02-07T08:48:28.513Z,1.44
2018-02-07T08:49:28.545Z,1.45
2018-02-07T08:50:28.669Z,1.50
2018-02-07T08:51:28.600Z,1.36
2018-02-07T08:52:28.629Z,1.47
2018-02-07T08:53:28.672Z,1.50
2018-02-07T08:54:28.689Z,1.45
2018-02-07T08:55:28.719Z,1.37
2018-02-07T08:56:28.749Z,1.40
2018-02-07T08:57:28.773Z,1.37
2018-02-07T08:58:28.802Z,1.37
2018-02-07T08:59:28.829Z,1.30
2018-02-07T09:00:28.863Z,1.36
2018-02-07T09:01:28.891Z,1.36
2018-02-07T09:02:28.915Z,1.37
2018-02-07T09:03:28.944Z,1.65
2018-02-07T09:04:28.974Z,1.77
2018-02-07T09:05:29.010Z,1.77
2018-02-07T09:06:29.031Z,1.70
2018-02-07T09:07:29.061Z,1.80
2018-02-07T09:08:29.087Z,1.80
2018-02-07T09:09:29.117Z,1.76
2018-02-07T09:10:29.147Z,1.66
2018-02-07T09:11:29.177Z,1.84
2018-02-07T09:12:29.204Z,1.87
2018-02-07T09:13:29.232Z,1.86
2018-02-07T09:14:29.261Z,1.68
2018-02-07T09:15:29.298Z,1.58
2018-02-07T09:16:29.317Z,1.68
2018-02-07T09:17:29.346Z,1.65
2018-02-07T09:18:29.375Z,1.50
2018-02-07T09:19:29.405Z,1.54
2018-02-07T09:20:29.440Z,1.51
2018-02-07T09:21:29.479Z,1.37
2018-02-07T09:22:29.506Z,1.42
2018-02-07T09:23:29.520Z,1.34
2018-02-07T09:24:29.552Z,1.30
2018-02-07T09:25:29.578Z,1.34
2018-02-07T09:27:29.636Z,1.37
2018-02-07T09:28:29.865Z,1.40
2018-02-07T09:29:29.707Z,1.42
2018-02-07T09:30:29.723Z,1.47
2018-02-07T09:31:29.754Z,1.41
2018-02-07T09:32:29.784Z,1.40
2018-02-07T09:33:29.836Z,1.41
2018-02-07T09:34:29.837Z,1.36
2018-02-07T09:35:29.864Z,1.32
2018-02-07T09:36:29.894Z,1.40
2018-02-07T09:37:29.922Z,1.37
2018-02-07T09:38:29.955Z,1.33
2018-02-07T09:39:29.979Z,1.44
2018-02-07T09:40:30.053Z,1.44
2018-02-07T09:41:30.036Z,1.27
2018-02-07T09:42:30.065Z,1.30
2018-02-07T09:43:30.096Z,1.36
2018-02-07T09:44:30.120Z,1.30
2018-02-07T09:45:30.155Z,1.40
2018-02-07T09:46:30.178Z,1.37
2018-02-07T09:47:30.209Z,1.42
2018-02-07T09:48:30.235Z,1.41
2018-02-07T09:49:30.267Z,1.34
2018-02-07T09:50:30.296Z,1.37
2018-02-07T09:51:30.324Z,1.40
2018-02-07T09:52:30.397Z,1.36
2018-02-07T09:53:30.397Z,1.42
2018-02-07T09:54:30.406Z,1.32
2018-02-07T09:55:30.437Z,1.40
2018-02-07T09:56:30.467Z,1.33
2018-02-07T09:57:30.566Z,1.40
2018-02-07T09:58:30.520Z,1.42
2018-02-07T09:59:30.564Z,1.37
2018-02-07T10:00:30.577Z,1.27
2018-02-07T10:01:30.607Z,1.34
2018-02-07T10:02:30.632Z,1.27
2018-02-07T10:03:30.663Z,1.33
2018-02-07T10:04:30.691Z,1.30
2018-02-07T10:05:30.718Z,1.34
2018-02-07T10:06:30.748Z,1.30
2018-02-07T10:07:30.778Z,1.32
2018-02-07T10:08:30.803Z,1.33
2018-02-07T10:09:30.894Z,1.40
2018-02-07T10:10:30.860Z,1.40
2018-02-07T10:11:30.908Z,1.40
2018-02-07T10:12:30.918Z,1.37
2018-02-07T10:13:30.953Z,1.37
2018-02-07T10:14:30.974Z,1.41
2018-02-07T10:15:31.001Z,1.34
2018-02-07T10:16:31.029Z,1.50
2018-02-07T10:17:31.072Z,1.50
2018-02-07T10:18:31.086Z,1.58
2018-02-07T10:19:31.122Z,1.60
2018-02-07T10:20:31.143Z,1.63
2018-02-07T10:21:31.175Z,1.69
2018-02-07T10:22:31.200Z,1.77
2018-02-07T10:23:31.229Z,1.80
2018-02-07T10:24:31.265Z,1.83
2018-02-07T10:25:31.287Z,1.91
2018-02-07T10:26:31.368Z,2.03
2018-02-07T10:27:31.342Z,2.17
2018-02-07T10:28:31.371Z,2.25
2018-02-07T10:29:31.456Z,2.38
2018-02-07T10:30:31.431Z,2.42
2018-02-07T10:31:31.464Z,2.64
2018-02-07T10:32:31.485Z,2.81
2018-02-07T10:33:31.875Z,2.78
2018-02-07T10:34:31.541Z,2.99
2018-02-07T10:35:31.572Z,3.06
2018-02-07T10:36:31.602Z,3.00
2018-02-07T10:37:31.628Z,3.18
2018-02-07T10:38:31.658Z,3.21
2018-02-07T10:39:31.746Z,3.24
2018-02-07T10:40:31.714Z,3.20
2018-02-07T10:41:31.762Z,3.10
2018-02-07T10:42:31.772Z,2.99
2018-02-07T10:43:32.013Z,3.05
2018-02-07T10:44:31.833Z,3.14
2018-02-07T10:45:31.871Z,3.15
2018-02-07T10:46:31.894Z,3.18
2018-02-07T10:47:31.918Z,3.18
2018-02-07T10:48:31.950Z,3.24
2018-02-07T10:49:31.976Z,3.31
2018-02-07T10:50:32.039Z,3.33
2018-02-07T10:51:32.034Z,3.32
2018-02-07T10:52:32.087Z,3.33
2018-02-07T10:53:32.094Z,3.26
2018-02-07T10:54:32.123Z,3.47
2018-02-07T10:55:32.154Z,3.40
2018-02-07T10:56:32.185Z,3.33
2018-02-07T10:57:32.210Z,3.35
2018-02-07T10:58:32.244Z,3.42
2018-02-07T10:59:32.270Z,3.35
2018-02-07T11:00:32.297Z,3.33
2018-02-07T11:01:32.327Z,3.43
2018-02-07T11:02:32.411Z,3.35
2018-02-07T11:03:32.390Z,3.50
2018-02-07T11:04:32.417Z,3.52
2018-02-07T11:05:32.448Z,3.66
2018-02-07T11:06:32.476Z,3.84
2018-02-07T11:07:32.506Z,3.87
2018-02-07T11:08:32.536Z,3.87
2018-02-07T11:09:32.626Z,4.08
2018-02-07T11:10:32.597Z,3.93
2018-02-07T11:11:32.628Z,4.04
2018-02-07T11:12:32.665Z,4.15
2018-02-07T11:13:32.689Z,4.20
2018-02-07T11:14:32.713Z,4.09
2018-02-07T11:15:32.742Z,3.80
2018-02-07T11:16:32.772Z,3.88
2018-02-07T11:17:32.802Z,3.90
2018-02-07T11:18:32.837Z,3.90
2018-02-07T11:19:32.867Z,3.83
2018-02-07T11:20:32.892Z,3.86
2018-02-07T11:21:32.921Z,3.79
2018-02-07T11:22:32.950Z,3.79
2018-02-07T11:23:32.979Z,3.88
2018-02-07T11:24:33.010Z,3.87
2018-02-07T11:25:33.040Z,3.86
2018-02-07T11:26:33.188Z,3.93
2018-02-07T11:27:33.101Z,3.91
2018-02-07T11:28:33.128Z,3.97
2018-02-07T11:29:33.158Z,4.05
2018-02-07T11:30:33.188Z,4.05
2018-02-07T11:31:33.219Z,4.09
2018-02-07T11:32:33.249Z,4.34
2018-02-07T11:33:33.278Z,4.42
2018-02-07T11:34:33.310Z,4.44
2018-02-07T11:35:33.339Z,4.37
2018-02-07T11:36:33.371Z,4.30
2018-02-07T11:37:33.400Z,4.30
2018-02-07T11:38:33.429Z,4.40
2018-02-07T11:39:33.460Z,4.34
2018-02-07T11:40:33.490Z,4.29
2018-02-07T11:41:33.520Z,4.12
2018-02-07T11:42:33.561Z,4.24
2018-02-07T11:43:33.595Z,4.34
2018-02-07T11:44:33.617Z,4.33
2018-02-07T11:45:33.641Z,4.23
2018-02-07T11:46:33.673Z,4.11
2018-02-07T11:47:33.708Z,4.09
2018-02-07T11:48:33.730Z,4.09
2018-02-07T11:49:33.761Z,4.08
2018-02-07T11:50:33.825Z,4.02
2018-02-07T11:51:33.822Z,4.00
2018-02-07T11:52:33.853Z,3.86
2018-02-07T11:53:33.881Z,3.66
2018-02-07T11:54:33.918Z,3.65
2018-02-07T11:55:33.945Z,3.52
2018-02-07T11:56:33.972Z,3.47
2018-02-07T11:57:34.001Z,3.45
2018-02-07T11:58:34.033Z,3.40
2018-02-07T11:59:34.065Z,3.20
2018-02-07T12:00:34.092Z,3.17
2018-02-07T12:01:34.124Z,3.20
2018-02-07T12:02:34.177Z,3.20
2018-02-07T12:03:34.183Z,3.03
2018-02-07T12:04:34.213Z,3.24
2018-02-07T12:05:34.260Z,3.26
2018-02-07T12:06:34.273Z,3.28
2018-02-07T12:07:34.303Z,3.33
2018-02-07T12:08:34.333Z,3.31
2018-02-07T12:09:34.679Z,3.15
2018-02-07T12:10:34.396Z,3.31
2018-02-07T12:11:34.437Z,3.18
2018-02-07T12:12:34.454Z,3.21
2018-02-07T12:13:34.484Z,3.18
2018-02-07T12:14:34.507Z,3.17
2018-02-07T12:15:34.537Z,3.32
2018-02-07T12:16:34.566Z,3.14
2018-02-07T12:17:34.603Z,3.18
2018-02-07T12:18:34.624Z,3.29
2018-02-07T12:19:34.730Z,3.36
2018-02-07T12:20:34.685Z,3.39
2018-02-07T12:21:34.715Z,3.47
2018-02-07T12:22:34.747Z,3.55
2018-02-07T12:23:34.790Z,3.66
2018-02-07T12:24:34.806Z,3.55
2018-02-07T12:25:34.837Z,3.47
2018-02-07T12:26:34.890Z,3.43
2018-02-07T12:27:34.891Z,3.48
2018-02-07T12:28:34.921Z,3.45
2018-02-07T12:29:34.953Z,3.57
2018-02-07T12:30:34.980Z,3.65
2018-02-07T12:31:35.011Z,3.66
2018-02-07T12:32:35.040Z,3.80
2018-02-07T12:33:35.069Z,3.79
2018-02-07T12:34:35.100Z,3.80
2018-02-07T12:35:35.129Z,3.87
2018-02-07T12:36:35.479Z,3.72
2018-02-07T12:37:35.189Z,3.84
2018-02-07T12:38:35.246Z,3.70
2018-02-07T12:39:35.253Z,3.78
2018-02-07T12:40:35.278Z,3.79
2018-02-07T12:41:35.308Z,3.66
2018-02-07T12:42:35.360Z,3.66
2018-02-07T12:43:35.384Z,3.75
2018-02-07T12:44:35.393Z,3.72
2018-02-07T12:45:35.427Z,3.79
2018-02-07T12:46:35.454Z,3.79
2018-02-07T12:47:35.484Z,3.78
2018-02-07T12:48:35.588Z,3.83
2018-02-07T12:49:35.543Z,3.73
2018-02-07T12:50:35.581Z,3.66
2018-02-07T12:51:35.603Z,3.45
2018-02-07T12:52:35.632Z,3.33
2018-02-07T12:53:35.661Z,3.28
2018-02-07T12:54:35.691Z,3.17
2018-02-07T12:55:35.721Z,3.31
2018-02-07T12:56:35.754Z,3.23
2018-02-07T12:57:35.782Z,3.20
2018-02-07T12:58:35.818Z,3.18
2018-02-07T12:59:35.842Z,3.15
2018-02-07T13:00:35.928Z,3.20
2018-02-07T13:01:35.900Z,3.02
2018-02-07T13:02:35.930Z,3.08
2018-02-07T13:03:35.959Z,3.03
2018-02-07T13:04:35.990Z,2.97
2018-02-07T13:05:36.078Z,3.06
2018-02-07T13:06:36.056Z,3.06